Storm Wave — CZ9636 — position and weather

sailwx.info

Track history (hours):
 
Tides and Currents Weather Stations Pressure Air Temp Water Temp Dewpoint Dewpoint Depression Visibility Wind Speed Wind Dir Waves Ship Positions

Storm Wave

Last reported at 2017-Oct-19 09:30 UTC. Time now 2017-Oct-19 09:39 UTC.
Position N 49°13' W 123°09'.

Length 19 m; draft 4.2 m.

Type: Tug. MMSI: 316001222.

Date/timePositionNaut miles runAvg speedWind from/ knotsBaromVisibWave heightAir tempDewpointWater temp
2017-Oct-19 09:30N 49°13' W 123°09'4 7.5
2017-Oct-19 09:00N 49°14' W 123°15'1 2.1
2017-Oct-19 08:30N 49°15' W 123°16'2 4.4
2017-Oct-19 08:00N 49°16' W 123°19'4 7.5
2017-Oct-19 07:30N 49°18' W 123°23'4 7.5
2017-Oct-19 07:00N 49°20' W 123°28'4 7.1
2017-Oct-19 06:30N 49°22' W 123°33'4 7.1
2017-Oct-19 06:00N 49°23' W 123°38'4 7.5
2017-Oct-19 05:30N 49°25' W 123°43'3 6.5
2017-Oct-19 05:00N 49°28' W 123°45'2 3.0
2017-Oct-19 04:30N 49°26' W 123°45'1 2.3
2017-Oct-19 04:00N 49°28' W 123°45'1 2.8
2017-Oct-19 03:30N 49°27' W 123°47'1 2.6
2017-Oct-19 03:00N 49°27' W 123°45'1 2.2
2017-Oct-19 02:30N 49°27' W 123°46'1 2.1
2017-Oct-19 02:00N 49°26' W 123°46'1 2.5
2017-Oct-19 01:30N 49°27' W 123°44'1 2.5
2017-Oct-19 01:00N 49°27' W 123°46'1 2.9
2017-Oct-19 00:30N 49°28' W 123°48'1 2.9
2017-Oct-19 00:00N 49°28' W 123°50'1 2.2
2017-Oct-18 23:30N 49°27' W 123°51'2 4.3
2017-Oct-18 23:00N 49°26' W 123°48'2 4.3
2017-Oct-18 22:30N 49°24' W 123°45'2 4.6
2017-Oct-18 22:00N 49°23' W 123°43'3 5.6
2017-Oct-18 21:30N 49°21' W 123°40'3 5.5
2017-Oct-18 21:00N 49°19' W 123°37'3 5.3
2017-Oct-18 20:30N 49°17' W 123°34'3 5.9
2017-Oct-18 20:00N 49°15' W 123°31'4 7.0
2017-Oct-18 19:30N 49°12' W 123°27'4 8.0
2017-Oct-18 19:00N 49°09' W 123°23'4 7.0
2017-Oct-18 18:30N 49°06' W 123°20'510.3
2017-Oct-18 18:00N 49°08' W 123°13'511.0
2017-Oct-18 17:30N 49°07' W 123°04'510.0
2017-Oct-18 17:00N 49°09' W 122°57'5 9.1
2017-Oct-18 16:30N 49°13' W 122°53'5 9.3
2017-Oct-18 16:00N 49°13' W 122°46'4 8.3
2017-Oct-18 15:30N 49°12' W 122°40'1461.1
2017-Oct-18 15:17N 49°17' W 122°58'0 0.0
2017-Oct-18 15:00N 49°17' W 122°58'121027.1
2017-Oct-18 15:00N 49°12' W 122°42'1211.7
2017-Oct-18 14:00N 49°18' W 122°58'7814.1
2017-Oct-18 14:00N 49°11' W 122°55'713.4
2017-Oct-18 13:30N 49°18' W 122°58'8980.7
2017-Oct-18 13:30N 49°09' W 122°60'0 0.7
2017-Oct-18 13:00N 49°09' W 123°00'816.4
2017-Oct-18 12:30N 49°17' W 122°58'8777.6
2017-Oct-18 12:30N 49°09' W 123°00'0 0.0
2017-Oct-18 12:00N 49°09' W 123°00'0 0.0
2017-Oct-18 11:30N 49°09' W 123°00'814764.4
2017-Oct-18 11:30N 49°17' W 122°58'816.4
2017-Oct-18 11:00N 49°09' W 123°00'0 0.0
2017-Oct-18 10:30N 49°09' W 123°00'1 2.1
2017-Oct-18 10:00N 49°10' W 122°59'1 2.1
2017-Oct-18 09:30N 49°09' W 123°00'3 6.8
2017-Oct-18 09:00N 49°07' W 123°05'4 7.4
2017-Oct-18 08:30N 49°07' W 123°10'3 6.6
2017-Oct-18 08:00N 49°07' W 123°15'3 6.6
2017-Oct-18 07:30N 49°06' W 123°19'4 9.0
2017-Oct-18 07:00N 49°01' W 123°18'5 9.1
2017-Oct-18 06:30N 48°57' W 123°18'5 9.4
2017-Oct-18 06:00N 48°52' W 123°19'3 6.6
2017-Oct-18 05:30N 48°49' W 123°21'4 7.6
2017-Oct-18 05:00N 48°45' W 123°20'8 7.4
2017-Oct-18 03:55N 48°37' W 123°23'4 7.7
2017-Oct-18 03:21N 48°33' W 123°21'3 7.6
2017-Oct-18 03:00N 48°31' W 123°19'4 7.4
2017-Oct-18 02:30N 48°28' W 123°16'3 6.6
2017-Oct-18 02:01N 48°25' W 123°17'3 6.0
2017-Oct-18 01:30N 48°24' W 123°22'2 4.0
2017-Oct-18 01:00N 48°26' W 123°22'0 0.1
2017-Oct-18 00:30N 48°26' W 123°22'0 0.3
2017-Oct-18 00:00N 48°26' W 123°23'0 0.0
2017-Oct-17 23:30N 48°26' W 123°23'0 0.0
2017-Oct-17 23:01N 48°26' W 123°23'0 0.0
2017-Oct-17 22:30N 48°26' W 123°23'0 0.0
2017-Oct-17 22:00N 48°26' W 123°23'0 0.0
2017-Oct-17 21:30N 48°26' W 123°23'0 0.1
2017-Oct-17 21:00N 48°26' W 123°23'0 0.1
2017-Oct-17 20:30N 48°26' W 123°23'0 0.0
2017-Oct-17 20:00N 48°26' W 123°23'0 0.0
2017-Oct-17 19:30N 48°26' W 123°23'0 0.0
2017-Oct-17 19:00N 48°26' W 123°23'0 0.0
2017-Oct-17 18:30N 48°26' W 123°23'0 0.0
2017-Oct-17 18:00N 48°26' W 123°23'0 0.0
2017-Oct-17 17:30N 48°26' W 123°23'0 0.1
2017-Oct-17 17:00N 48°26' W 123°22'0 0.1
2017-Oct-17 16:30N 48°26' W 123°23'0 0.1
2017-Oct-17 16:00N 48°26' W 123°23'0 0.1
2017-Oct-17 15:30N 48°26' W 123°23'0 0.1
2017-Oct-17 15:00N 48°26' W 123°23'0 0.1
2017-Oct-17 14:30N 48°26' W 123°23'0 0.0
2017-Oct-17 14:00N 48°26' W 123°23'0 0.0
2017-Oct-17 13:30N 48°26' W 123°23'0 0.0
2017-Oct-17 13:00N 48°26' W 123°23'0 0.0
2017-Oct-17 12:30N 48°26' W 123°23'0 0.0
2017-Oct-17 12:00N 48°26' W 123°23'0 0.0
2017-Oct-17 11:30N 48°26' W 123°23'0 0.0
2017-Oct-17 11:00N 48°26' W 123°23'0 0.0
2017-Oct-17 10:30N 48°26' W 123°23'0 0.2
2017-Oct-17 10:00N 48°26' W 123°22'1 3.0
2017-Oct-17 09:30N 48°25' W 123°24'2 4.5
2017-Oct-17 09:00N 48°24' W 123°21'3 5.1
2017-Oct-17 08:30N 48°25' W 123°17'3 6.2
2017-Oct-17 08:00N 48°28' W 123°15'3 6.8
2017-Oct-17 07:30N 48°31' W 123°17'4 7.0
2017-Oct-17 07:00N 48°34' W 123°19'12 7.2
2017-Oct-17 05:20N 48°46' W 123°20'3 7.6
2017-Oct-17 05:00N 48°49' W 123°21'3 6.0
2017-Oct-17 04:30N 48°52' W 123°20'2960.3
2017-Oct-17 04:01N 49°17' W 122°58'0 0.0
2017-Oct-17 04:01N 49°17' W 122°58'2610328.9
2017-Oct-17 04:00N 48°55' W 123°18'2652.0
2017-Oct-17 03:31N 49°18' W 122°59'232819.7
2017-Oct-17 03:30N 48°59' W 123°19'2244.0
2017-Oct-17 03:01N 49°18' W 123°02'198565.4
2017-Oct-17 03:00N 49°02' W 123°19'1835.8
2017-Oct-17 02:31N 49°18' W 123°07'14527.5
2017-Oct-17 02:29N 49°06' W 123°19'1327.8
2017-Oct-17 02:01N 49°19' W 123°13'11502.5
2017-Oct-17 01:59N 49°08' W 123°13'1122.3
2017-Oct-17 01:31N 49°18' W 123°17'135843.6
2017-Oct-17 01:30N 49°07' W 123°08'1529.3
2017-Oct-17 01:01N 49°17' W 123°24'161036.7
2017-Oct-17 01:00N 49°08' W 123°04'1939.0
2017-Oct-17 00:31N 49°17' W 123°30'209214.7
2017-Oct-17 00:30N 49°09' W 123°00'1 2.3
2017-Oct-17 00:00N 49°09' W 123°02'236944.2
2017-Oct-17 00:00N 49°16' W 123°36'2345.7
2017-Oct-16 23:30N 49°08' W 123°03'27596.3
2017-Oct-16 23:28N 49°15' W 123°42'2758.3
2017-Oct-16 23:00N 49°08' W 123°03'308952.5
2017-Oct-16 23:00N 49°14' W 123°48'4 7.8
2017-Oct-16 22:31N 49°13' W 123°54'3013593.5
2017-Oct-16 22:30N 49°06' W 123°09'3264.3
2017-Oct-16 22:01N 49°12' W 123°57'2714075.1
2017-Oct-16 22:00N 49°07' W 123°16'4 8.2
2017-Oct-16 21:30N 49°07' W 123°22'233993.3
2017-Oct-16 21:30N 49°12' W 123°57'0 0.0
2017-Oct-16 21:00N 49°12' W 123°57'204131.4
2017-Oct-16 21:00N 49°10' W 123°27'2040.3
2017-Oct-16 20:31N 49°12' W 123°57'161426.2
2017-Oct-16 20:30N 49°12' W 123°33'1632.4
2017-Oct-16 20:01N 49°12' W 123°57'13476.1
2017-Oct-16 19:59N 49°14' W 123°38'5 9.9
2017-Oct-16 19:30N 49°10' W 123°35'15293.0
2017-Oct-16 19:27N 49°12' W 123°57'0 0.0
2017-Oct-16 19:00N 49°12' W 123°57'176755.1
2017-Oct-16 19:00N 49°05' W 123°33'5 9.1
2017-Oct-16 18:30N 49°01' W 123°35'1853.1
2017-Oct-16 18:09N 49°12' W 123°57'22132.5
2017-Oct-16 17:59N 48°57' W 123°32'2282.5
2017-Oct-16 17:43N 49°12' W 123°57'27129.1
2017-Oct-16 17:30N 48°53' W 123°26'610.2
2017-Oct-16 16:56N 48°49' W 123°21'4 9.1
2017-Oct-16 16:28N 48°44' W 123°20'3641.5
2017-Oct-16 15:35N 49°12' W 123°57'42572.4
2017-Oct-16 15:31N 48°37' W 123°20'0 7.9
2017-Oct-16 15:28N 48°36' W 123°20'431243.3
2017-Oct-16 15:26N 49°12' W 123°57'46107.8
2017-Oct-16 15:00N 48°33' W 123°19'46441.7
2017-Oct-16 14:54N 49°12' W 123°57'0 0.0
2017-Oct-16 14:30N 49°12' W 123°57'53106.5
2017-Oct-16 14:00N 48°26' W 123°16'3 6.8
2017-Oct-16 13:30N 48°24' W 123°19'552704.8
2017-Oct-16 13:29N 49°12' W 123°57'52109.5
2017-Oct-16 13:00N 48°25' W 123°24'5246551.0
2017-Oct-16 13:00N 49°12' W 123°56'2 4.2
2017-Oct-16 12:31N 49°14' W 123°53'5231143.5
2017-Oct-16 12:30N 48°26' W 123°22'52103.9
2017-Oct-16 12:01N 49°14' W 123°50'5337850.5
2017-Oct-16 12:00N 48°25' W 123°24'1 2.2
2017-Oct-16 11:30N 48°24' W 123°23'5438616.6
2017-Oct-16 11:30N 49°15' W 123°46'55110.2
2017-Oct-16 11:00N 48°23' W 123°19'5515211.2
2017-Oct-16 11:00N 49°16' W 123°43'55110.3
2017-Oct-16 10:30N 48°25' W 123°14'554680.6
2017-Oct-16 10:30N 49°17' W 123°39'52105.9
2017-Oct-16 10:00N 48°28' W 123°12'5192387.2
2017-Oct-16 10:00N 49°17' W 123°35'3 5.3
2017-Oct-16 09:31N 49°17' W 123°31'4834251.3
2017-Oct-16 09:30N 48°31' W 123°13'4795.0
2017-Oct-16 09:01N 49°18' W 123°27'4426503.1
2017-Oct-16 09:00N 48°35' W 123°14'4488.0
2017-Oct-16 08:30N 49°18' W 123°24'412230.9
2017-Oct-16 08:29N 48°38' W 123°15'4185.7
2017-Oct-16 08:01N 49°19' W 123°20'383689.2
2017-Oct-16 08:00N 48°41' W 123°16'3878.3
2017-Oct-16 07:31N 49°19' W 123°15'35869.6
2017-Oct-16 07:28N 48°44' W 123°17'3576.9
2017-Oct-16 07:01N 49°19' W 123°10'331606.3
2017-Oct-16 06:59N 48°46' W 123°20'3369.0
2017-Oct-16 06:31N 49°18' W 123°05'312387.2
2017-Oct-16 06:30N 48°49' W 123°21'3264.8
2017-Oct-16 06:01N 49°18' W 123°00'293004.5
2017-Oct-16 06:00N 48°52' W 123°20'3060.6
2017-Oct-16 05:31N 49°18' W 122°59'282253.9
2017-Oct-16 05:30N 48°53' W 123°18'2756.0
2017-Oct-16 05:01N 49°17' W 122°58'242413.1
2017-Oct-16 05:00N 48°57' W 123°18'2449.2
2017-Oct-16 04:31N 49°17' W 122°58'21786.1
2017-Oct-16 04:29N 49°02' W 123°19'2144.3
2017-Oct-16 04:01N 49°17' W 122°58'1810721.8
2017-Oct-16 04:00N 49°06' W 123°19'1835.9
2017-Oct-16 03:31N 49°17' W 122°58'131348.7
2017-Oct-16 03:30N 49°08' W 123°12'1327.5
2017-Oct-16 03:01N 49°17' W 122°58'111582.8
2017-Oct-16 03:00N 49°07' W 123°05'1123.2
2017-Oct-16 02:31N 49°17' W 122°58'84942.8
2017-Oct-16 02:30N 49°09' W 123°00'816.5
2017-Oct-16 02:01N 49°17' W 122°58'105856.7
2017-Oct-16 02:00N 49°08' W 123°03'1019.6
2017-Oct-16 01:31N 49°17' W 122°58'137808.0
2017-Oct-16 01:30N 49°07' W 123°10'1326.1
2017-Oct-16 01:01N 49°17' W 122°58'131348.1
2017-Oct-16 01:00N 49°07' W 123°11'1326.7
2017-Oct-16 00:31N 49°17' W 122°58'132948.0
2017-Oct-16 00:30N 49°07' W 123°11'1326.3
2017-Oct-16 00:00N 49°17' W 122°58'131685.2
2017-Oct-16 00:00N 49°07' W 123°11'1326.7
2017-Oct-15 23:31N 49°17' W 122°58'13842.6
2017-Oct-15 23:30N 49°07' W 123°11'1327.1
2017-Oct-15 23:01N 49°17' W 122°58'131310.2
2017-Oct-15 23:00N 49°07' W 123°11'1326.7
2017-Oct-15 22:31N 49°17' W 122°58'13827.5
2017-Oct-15 22:30N 49°07' W 123°11'1327.1
2017-Oct-15 22:01N 49°17' W 122°58'131348.1
2017-Oct-15 22:00N 49°07' W 123°11'1326.7
2017-Oct-15 21:31N 49°17' W 122°58'13842.3
2017-Oct-15 21:30N 49°07' W 123°11'1327.1
2017-Oct-15 21:01N 49°17' W 122°58'13132.2
2017-Oct-15 20:55N 49°07' W 123°11'1332.7
2017-Oct-15 20:31N 49°17' W 122°58'131310.2
2017-Oct-15 20:30N 49°07' W 123°11'1326.7
2017-Oct-15 20:01N 49°17' W 122°58'132957.3
2017-Oct-15 20:00N 49°07' W 123°11'1326.5
2017-Oct-15 19:31N 49°17' W 122°58'13556.5
2017-Oct-15 19:29N 49°07' W 123°11'1429.4
2017-Oct-15 19:01N 49°18' W 122°57'141439.0
2017-Oct-15 19:00N 49°07' W 123°11'1531.1
2017-Oct-15 18:31N 49°17' W 122°54'151192.5
2017-Oct-15 18:30N 49°07' W 123°11'1428.3
2017-Oct-15 18:00N 49°18' W 122°57'1311630.1
2017-Oct-15 18:00N 49°07' W 123°07'1224.8
2017-Oct-15 17:31N 49°17' W 122°58'84902.9
2017-Oct-15 17:30N 49°09' W 122°60'816.4
2017-Oct-15 17:01N 49°17' W 122°58'8638.9
2017-Oct-15 17:00N 49°09' W 122°59'816.4
2017-Oct-15 16:31N 49°17' W 122°58'6872.8
2017-Oct-15 16:30N 49°12' W 122°54'510.2
2017-Oct-15 16:00N 49°13' W 122°46'911092.9
2017-Oct-15 16:00N 49°17' W 122°58'0 0.0
2017-Oct-15 15:31N 49°17' W 122°58'143079.3
2017-Oct-15 15:30N 49°12' W 122°39'1 2.7
2017-Oct-15 15:00N 49°12' W 122°42'1222222.7
2017-Oct-15 15:00N 49°17' W 122°58'3 2.9
2017-Oct-15 14:01N 49°17' W 122°54'53621.9
2017-Oct-15 14:00N 49°12' W 122°54'611.7
2017-Oct-15 13:31N 49°18' W 122°58'8655.8
2017-Oct-15 13:30N 49°09' W 122°58'816.5
2017-Oct-15 13:01N 49°17' W 122°58'82015.6
2017-Oct-15 13:00N 49°09' W 123°00'816.8
2017-Oct-15 12:30N 49°17' W 122°58'81778.1
2017-Oct-15 12:30N 49°10' W 122°59'816.0
2017-Oct-15 12:01N 49°17' W 122°58'85750.4
2017-Oct-15 12:00N 49°09' W 122°59'816.0
2017-Oct-15 11:31N 49°17' W 122°58'95467.2
2017-Oct-15 11:30N 49°09' W 123°02'918.3
2017-Oct-15 11:01N 49°17' W 122°58'127110.4
2017-Oct-15 11:00N 49°07' W 123°06'1223.8
2017-Oct-15 10:31N 49°17' W 122°58'131846.5
2017-Oct-15 10:30N 49°07' W 123°11'1327.1
2017-Oct-15 10:01N 49°17' W 122°58'153669.5
2017-Oct-15 10:00N 49°07' W 123°16'1530.8
2017-Oct-15 09:31N 49°17' W 122°58'194222.9
2017-Oct-15 09:30N 49°05' W 123°20'1937.7
2017-Oct-15 09:00N 49°17' W 122°58'212900.5
2017-Oct-15 09:00N 49°01' W 123°18'2142.8
2017-Oct-15 08:31N 49°17' W 122°58'245030.4
2017-Oct-15 08:30N 48°57' W 123°17'2448.0
2017-Oct-15 08:01N 49°17' W 122°58'276172.7
2017-Oct-15 08:00N 48°53' W 123°18'2755.4
2017-Oct-15 07:31N 49°17' W 122°58'316880.3
2017-Oct-15 07:30N 48°51' W 123°21'3161.7
2017-Oct-15 07:01N 49°17' W 122°58'343450.0
2017-Oct-15 07:00N 48°47' W 123°21'5 7.9
2017-Oct-15 06:20N 48°42' W 123°21'5 7.8
2017-Oct-15 05:45N 48°37' W 123°21'2 8.0
2017-Oct-15 05:30N 48°36' W 123°19'4 7.5
2017-Oct-15 05:00N 48°32' W 123°18'4 7.6
2017-Oct-15 04:30N 48°29' W 123°16'3 6.4
2017-Oct-15 04:00N 48°26' W 123°17'3 5.9
2017-Oct-15 03:30N 48°24' W 123°20'3 5.4
2017-Oct-15 03:00N 48°25' W 123°24'1 2.2
2017-Oct-15 02:30N 48°26' W 123°22'0 0.3
2017-Oct-15 02:00N 48°26' W 123°23'0 0.5
2017-Oct-15 01:30N 48°26' W 123°22'0 0.0
2017-Oct-15 01:00N 48°26' W 123°22'0 0.0
2017-Oct-15 00:30N 48°26' W 123°22'0 0.0
2017-Oct-15 00:00N 48°26' W 123°22'0 0.0
2017-Oct-14 23:30N 48°26' W 123°22'0 0.0
2017-Oct-14 23:00N 48°26' W 123°22'0 0.0
2017-Oct-14 22:30N 48°26' W 123°22'0 0.0
2017-Oct-14 22:00N 48°26' W 123°22'0 0.0
2017-Oct-14 21:30N 48°26' W 123°22'0 0.0
2017-Oct-14 21:00N 48°26' W 123°22'0 0.0
2017-Oct-14 20:30N 48°26' W 123°22'0 0.0
2017-Oct-14 20:00N 48°26' W 123°22'0 0.0
2017-Oct-14 19:30N 48°26' W 123°22'0 0.0
2017-Oct-14 19:00N 48°26' W 123°22'0 0.0
2017-Oct-14 18:30N 48°26' W 123°22'0 0.0
2017-Oct-14 18:00N 48°26' W 123°22'0 0.0
2017-Oct-14 17:30N 48°26' W 123°22'0 0.0
2017-Oct-14 17:00N 48°26' W 123°22'0 0.0
2017-Oct-14 16:30N 48°26' W 123°22'0 0.0
2017-Oct-14 16:00N 48°26' W 123°22'0 0.0
2017-Oct-14 15:30N 48°26' W 123°22'54234.4
2017-Oct-14 15:17N 49°18' W 122°59'54201.2
2017-Oct-14 15:00N 48°26' W 123°22'546241.9
2017-Oct-14 15:00N 49°18' W 123°00'54109.4
2017-Oct-14 14:30N 48°26' W 123°22'5464377.5
2017-Oct-14 14:30N 49°18' W 123°02'54107.5
2017-Oct-14 14:00N 48°26' W 123°22'5395966.2
2017-Oct-14 14:00N 49°18' W 123°04'53106.5
2017-Oct-14 13:30N 48°26' W 123°23'5464644.8
2017-Oct-14 13:30N 49°18' W 123°00'54108.3
2017-Oct-14 13:00N 48°26' W 123°22'5438893.7
2017-Oct-14 13:00N 49°17' W 122°58'54108.3
2017-Oct-14 12:30N 48°26' W 123°22'5448612.0
2017-Oct-14 12:30N 49°17' W 122°58'54108.2
2017-Oct-14 12:00N 48°26' W 123°22'5464822.9
2017-Oct-14 12:00N 49°17' W 122°58'54108.2
2017-Oct-14 11:30N 48°26' W 123°22'5464829.8
2017-Oct-14 11:30N 49°17' W 122°58'54108.3
2017-Oct-14 11:00N 48°26' W 123°22'5438889.6
2017-Oct-14 11:00N 49°17' W 122°58'54108.2
2017-Oct-14 10:30N 48°26' W 123°22'5464809.1
2017-Oct-14 10:30N 49°17' W 122°58'54108.2
2017-Oct-14 10:00N 48°26' W 123°22'5497244.6
2017-Oct-14 10:00N 49°17' W 122°58'54108.2
2017-Oct-14 09:30N 48°26' W 123°22'5464816.0
2017-Oct-14 09:30N 49°17' W 122°58'54108.3
2017-Oct-14 09:00N 48°26' W 123°22'5464822.9
2017-Oct-14 09:00N 49°17' W 122°58'54108.2
2017-Oct-14 08:30N 48°26' W 123°22'5448617.2
2017-Oct-14 08:30N 49°17' W 122°58'54108.2
2017-Oct-14 08:00N 48°26' W 123°22'54194468.6
2017-Oct-14 08:00N 49°17' W 122°58'54108.2
2017-Oct-14 07:30N 48°26' W 123°22'5412963.2
2017-Oct-14 07:30N 49°17' W 122°58'54108.5
2017-Oct-14 07:00N 48°26' W 123°23'5496672.4
2017-Oct-14 07:00N 49°18' W 123°00'4 7.2
2017-Oct-14 06:30N 49°18' W 123°06'55110.0
2017-Oct-14 06:00N 48°24' W 123°24'5598852.7
2017-Oct-14 06:00N 49°19' W 123°12'55111.0
2017-Oct-14 05:30N 48°24' W 123°20'5598311.7
2017-Oct-14 05:30N 49°18' W 123°17'54107.6
2017-Oct-14 05:00N 48°24' W 123°17'53191563.7
2017-Oct-14 05:00N 49°17' W 123°23'51102.4
2017-Oct-14 04:30N 48°27' W 123°16'515890.5
2017-Oct-14 04:30N 49°16' W 123°29'4998.7
2017-Oct-14 04:00N 48°29' W 123°14'3 6.8
2017-Oct-14 03:30N 48°32' W 123°13'4613917.6
2017-Oct-14 03:30N 49°15' W 123°41'4 8.5
2017-Oct-14 03:00N 49°14' W 123°47'445713.4
2017-Oct-14 03:00N 48°35' W 123°14'4692.1
2017-Oct-14 02:30N 49°13' W 123°54'4319411.8
2017-Oct-14 02:30N 48°38' W 123°15'4386.1
2017-Oct-14 02:00N 49°12' W 123°57'0 0.0
2017-Oct-14 01:08N 49°12' W 123°57'0 0.0
2017-Oct-14 00:58N 49°12' W 123°57'0 0.0
2017-Oct-14 00:28N 49°12' W 123°57'31881.5
2017-Oct-14 00:26N 48°51' W 123°21'3170.3
2017-Oct-14 00:00N 49°12' W 123°57'32461.4
2017-Oct-13 23:56N 48°53' W 123°18'3 5.4
2017-Oct-13 23:26N 48°55' W 123°19'30301.9
2017-Oct-13 23:20N 49°12' W 123°57'2780.1
2017-Oct-13 23:00N 48°57' W 123°22'272932.6
2017-Oct-13 23:00N 49°12' W 123°57'0 0.0
2017-Oct-13 22:30N 49°12' W 123°57'2412283.7
2017-Oct-13 22:30N 48°60' W 123°25'3 5.6
2017-Oct-13 22:00N 49°02' W 123°28'213641.7
2017-Oct-13 22:00N 49°12' W 123°57'0 0.0
2017-Oct-13 21:30N 49°12' W 123°57'193794.9
2017-Oct-13 21:30N 49°04' W 123°30'1938.3
2017-Oct-13 21:00N 49°12' W 123°57'177704.1
2017-Oct-13 21:00N 49°07' W 123°32'1733.6
2017-Oct-13 20:30N 49°12' W 123°57'163139.1
2017-Oct-13 20:29N 49°09' W 123°33'3 5.6
2017-Oct-13 20:00N 49°12' W 123°35'15432.8
2017-Oct-13 19:58N 49°12' W 123°57'1429.9
2017-Oct-13 19:30N 49°14' W 123°36'14808.3
2017-Oct-13 19:29N 49°12' W 123°57'1427.9
2017-Oct-13 19:00N 49°17' W 123°38'14152.5
2017-Oct-13 18:55N 49°12' W 123°57'1434.5
2017-Oct-13 18:30N 49°19' W 123°39'144574.2
2017-Oct-13 18:30N 49°12' W 123°57'1529.3
2017-Oct-13 18:00N 49°22' W 123°41'15113.9
2017-Oct-13 17:53N 49°12' W 123°57'1541.6
2017-Oct-13 17:30N 49°24' W 123°43'15456.1
2017-Oct-13 17:28N 49°12' W 123°57'1736.6
2017-Oct-13 17:00N 49°27' W 123°44'171459.9
2017-Oct-13 17:00N 49°12' W 123°57'1837.2
2017-Oct-13 16:30N 49°28' W 123°45'18697.9
2017-Oct-13 16:29N 49°12' W 123°57'1 1.5
2017-Oct-13 16:00N 49°12' W 123°56'178695.8
2017-Oct-13 16:00N 49°28' W 123°46'1 2.9
2017-Oct-13 15:30N 49°27' W 123°44'162734.9
2017-Oct-13 15:30N 49°12' W 123°55'1631.7
2017-Oct-13 15:00N 49°25' W 123°41'1526890.9
2017-Oct-13 15:00N 49°12' W 123°53'1530.9
2017-Oct-13 14:30N 49°23' W 123°36'1450800.6
2017-Oct-13 14:30N 49°13' W 123°51'1631.0
2017-Oct-13 14:00N 49°21' W 123°31'1425488.1
2017-Oct-13 14:00N 49°14' W 123°49'1632.8
2017-Oct-13 13:30N 49°19' W 123°26'154451.0
2017-Oct-13 13:30N 49°14' W 123°47'1835.5
2017-Oct-13 13:00N 49°17' W 123°21'164366.4
2017-Oct-13 13:00N 49°15' W 123°45'1837.1
2017-Oct-13 12:30N 49°15' W 123°16'171928.4
2017-Oct-13 12:30N 49°15' W 123°42'1938.9
2017-Oct-13 12:00N 49°13' W 123°12'17557.1
2017-Oct-13 11:58N 49°16' W 123°39'2043.9
2017-Oct-13 11:30N 49°12' W 123°08'1967408.2
2017-Oct-13 11:30N 49°16' W 123°36'2041.0
2017-Oct-13 11:00N 49°12' W 123°05'195170.4
2017-Oct-13 11:00N 49°16' W 123°33'2 4.5
2017-Oct-13 10:30N 49°17' W 123°30'163413.2
2017-Oct-13 10:30N 49°12' W 123°06'2 3.1
2017-Oct-13 10:00N 49°12' W 123°04'1628027.7
2017-Oct-13 10:00N 49°18' W 123°26'1938.3
2017-Oct-13 09:30N 49°11' W 122°59'1762096.3
2017-Oct-13 09:30N 49°18' W 123°23'2 4.5
2017-Oct-13 09:00N 49°19' W 123°19'1851.4
2017-Oct-13 08:40N 49°12' W 122°54'1 9.1
2017-Oct-13 08:30N 49°13' W 122°52'1529.5
2017-Oct-13 08:00N 49°19' W 123°13'201055.0
2017-Oct-13 07:59N 49°13' W 122°44'1836.7
2017-Oct-13 07:30N 49°19' W 123°09'211094.4
2017-Oct-13 07:29N 49°12' W 122°40'0 0.0
2017-Oct-13 07:00N 49°12' W 122°40'1821497.8
2017-Oct-13 07:00N 49°18' W 123°05'3 5.5
2017-Oct-13 06:30N 49°18' W 123°01'15264.0
2017-Oct-13 06:27N 49°12' W 122°41'1329.0
2017-Oct-13 06:00N 49°18' W 122°58'112126.8
2017-Oct-13 06:00N 49°13' W 122°43'2 3.9
2017-Oct-13 05:30N 49°13' W 122°46'916883.7
2017-Oct-13 05:30N 49°17' W 122°58'0 0.0
2017-Oct-13 05:00N 49°17' W 122°58'81501.3
2017-Oct-13 05:00N 49°13' W 122°49'2 4.3
2017-Oct-13 04:30N 49°13' W 122°52'61799.8
2017-Oct-13 04:30N 49°17' W 122°58'0 0.0
2017-Oct-13 04:00N 49°17' W 122°58'63680.1
2017-Oct-13 04:00N 49°12' W 122°54'2 4.1
2017-Oct-13 03:30N 49°10' W 122°56'813631.3
2017-Oct-13 03:30N 49°17' W 122°58'0 0.0
2017-Oct-13 03:00N 49°17' W 122°58'82890.2
2017-Oct-13 03:00N 49°09' W 122°59'816.0
2017-Oct-13 02:30N 49°17' W 122°58'93923.7
2017-Oct-13 02:30N 49°09' W 123°01'2 3.2
2017-Oct-13 02:00N 49°08' W 123°03'102990.7
2017-Oct-13 02:00N 49°17' W 122°58'0 0.0
2017-Oct-13 01:30N 49°17' W 122°58'114539.9
2017-Oct-13 01:30N 49°07' W 123°05'1122.7
2017-Oct-13 01:00N 49°17' W 122°58'135015.6
2017-Oct-13 01:00N 49°07' W 123°08'1325.2
2017-Oct-13 00:30N 49°17' W 122°58'135978.0
2017-Oct-13 00:30N 49°07' W 123°11'1326.7
2017-Oct-13 00:00N 49°17' W 122°58'142646.7
2017-Oct-13 00:00N 49°08' W 123°14'2 4.8
2017-Oct-12 23:30N 49°07' W 123°17'165329.3
2017-Oct-12 23:30N 49°17' W 122°58'0 0.0
2017-Oct-12 23:00N 49°17' W 122°58'18465.4
2017-Oct-12 22:58N 49°06' W 123°20'1941.2
2017-Oct-12 22:30N 49°18' W 122°57'209085.6
2017-Oct-12 22:30N 49°07' W 123°23'2243.7
2017-Oct-12 22:00N 49°18' W 122°54'224435.8
2017-Oct-12 22:00N 49°09' W 123°25'3 6.0
2017-Oct-12 21:30N 49°12' W 123°27'2279899.7
2017-Oct-12 21:30N 49°17' W 122°54'2346.5
2017-Oct-12 21:00N 49°14' W 123°30'2383673.6
2017-Oct-12 21:00N 49°17' W 122°54'2549.7
2017-Oct-12 20:30N 49°16' W 123°32'2589440.2
2017-Oct-12 20:30N 49°17' W 122°54'2753.1
2017-Oct-12 20:00N 49°18' W 123°35'278685.7
2017-Oct-12 20:00N 49°17' W 122°54'1 1.1
2017-Oct-12 19:30N 49°18' W 122°55'2816691.6
2017-Oct-12 19:30N 49°20' W 123°38'3 5.4
2017-Oct-12 19:00N 49°22' W 123°40'2798962.8
2017-Oct-12 19:00N 49°17' W 122°58'0 0.1
2017-Oct-12 18:30N 49°17' W 122°58'3015198.1
2017-Oct-12 18:30N 49°24' W 123°43'3 5.2
2017-Oct-12 18:00N 49°27' W 123°45'31112963.3
2017-Oct-12 18:00N 49°17' W 122°58'3264.2
2017-Oct-12 17:30N 49°28' W 123°45'328880.6
2017-Oct-12 17:30N 49°17' W 122°58'3264.6
2017-Oct-12 17:00N 49°28' W 123°45'32115525.1
2017-Oct-12 17:00N 49°17' W 122°58'0 0.0
2017-Oct-12 16:30N 49°17' W 122°58'3212850.1
2017-Oct-12 16:30N 49°28' W 123°45'3162.4
2017-Oct-12 16:00N 49°18' W 123°00'3162.1
2017-Oct-12 15:30N 49°28' W 123°45'3461131.8
2017-Oct-12 15:30N 49°18' W 122°55'3467.9
2017-Oct-12 15:00N 49°28' W 123°45'3664654.7
2017-Oct-12 15:00N 49°18' W 122°52'3672.0
2017-Oct-12 14:30N 49°28' W 123°45'3541698.3
2017-Oct-12 14:30N 49°17' W 122°54'3569.6
2017-Oct-12 14:00N 49°28' W 123°45'3229168.5
2017-Oct-12 14:00N 49°18' W 122°58'3264.9
2017-Oct-12 13:30N 49°28' W 123°45'3228898.5
2017-Oct-12 13:30N 49°17' W 122°58'0 0.0
2017-Oct-12 13:00N 49°17' W 122°58'3264.6
2017-Oct-12 12:30N 49°26' W 123°46'32116298.4
2017-Oct-12 12:30N 49°17' W 122°58'3060.9
2017-Oct-12 12:00N 49°24' W 123°44'308426.6
2017-Oct-12 12:00N 49°17' W 122°58'2957.7
2017-Oct-12 11:30N 49°22' W 123°42'29103180.8
2017-Oct-12 11:30N 49°17' W 122°58'2753.9
2017-Oct-12 11:00N 49°20' W 123°40'2732324.4
2017-Oct-12 11:00N 49°17' W 122°58'0 0.0
2017-Oct-12 10:30N 49°17' W 122°58'255034.9
2017-Oct-12 10:30N 49°17' W 123°37'2550.9
2017-Oct-12 10:00N 49°17' W 122°58'2410812.6
2017-Oct-12 10:00N 49°14' W 123°35'2448.3
2017-Oct-12 09:30N 49°17' W 122°58'239339.4
2017-Oct-12 09:30N 49°11' W 123°33'2346.9
2017-Oct-12 09:00N 49°17' W 122°58'232173.5
2017-Oct-12 09:00N 49°08' W 123°30'2346.9
2017-Oct-12 08:30N 49°17' W 122°58'233052.7
2017-Oct-12 08:30N 49°05' W 123°28'2346.5
2017-Oct-12 08:00N 49°17' W 122°58'231797.1
2017-Oct-12 08:00N 49°02' W 123°25'4 7.4
2017-Oct-12 07:30N 48°58' W 123°22'2544494.2
2017-Oct-12 07:30N 49°17' W 122°58'0 0.0
2017-Oct-12 07:00N 49°17' W 122°58'2631279.1
2017-Oct-12 07:00N 48°55' W 123°19'2652.2
2017-Oct-12 06:30N 49°17' W 122°58'283625.8
2017-Oct-12 06:30N 48°52' W 123°18'2 3.9
2017-Oct-12 06:00N 48°52' W 123°21'3 6.1
2017-Oct-12 05:30N 48°49' W 123°21'4 6.7
2017-Oct-12 04:59N 48°45' W 123°21'8 7.2
2017-Oct-12 03:54N 48°37' W 123°21'3 7.4
2017-Oct-12 03:30N 48°35' W 123°19'4 7.3
2017-Oct-12 03:00N 48°31' W 123°18'4 7.1
2017-Oct-12 02:30N 48°28' W 123°16'4 8.3
2017-Oct-12 02:00N 48°24' W 123°18'4 8.2
2017-Oct-12 01:30N 48°25' W 123°24'1 2.9
2017-Oct-12 01:00N 48°26' W 123°23'0 0.6
2017-Oct-12 00:30N 48°26' W 123°22'0 0.0
2017-Oct-12 00:00N 48°26' W 123°22'0 0.0
2017-Oct-11 23:30N 48°26' W 123°22'0 0.0
2017-Oct-11 23:00N 48°26' W 123°22'0 0.0
2017-Oct-11 22:30N 48°26' W 123°22'0 0.0
2017-Oct-11 22:00N 48°26' W 123°22'0 0.0
2017-Oct-11 21:30N 48°26' W 123°22'0 0.0
2017-Oct-11 21:00N 48°26' W 123°22'0 0.0
2017-Oct-11 20:30N 48°26' W 123°22'0 0.0
2017-Oct-11 20:00N 48°26' W 123°22'0 0.0
2017-Oct-11 19:30N 48°26' W 123°22'0 0.0
2017-Oct-11 19:00N 48°26' W 123°22'0 0.0
2017-Oct-11 18:30N 48°26' W 123°22'0 0.0
2017-Oct-11 18:00N 48°26' W 123°22'0 0.0
2017-Oct-11 17:30N 48°26' W 123°22'0 0.0
2017-Oct-11 17:00N 48°26' W 123°22'54126.8
2017-Oct-11 16:35N 49°17' W 122°58'39 2.3
2017-Oct-11 00:00N 49°12' W 123°57'3013540.3
2017-Oct-11 00:00N 48°50' W 123°25'3 5.7
2017-Oct-10 23:30N 48°53' W 123°27'271646.3
2017-Oct-10 23:29N 49°12' W 123°57'0 0.0
2017-Oct-10 23:00N 49°12' W 123°57'253154.4
2017-Oct-10 23:00N 48°55' W 123°30'3 6.0
2017-Oct-10 22:30N 48°57' W 123°33'3 6.4
2017-Oct-10 22:00N 48°60' W 123°36'1850.6
2017-Oct-10 21:38N 49°12' W 123°57'18129.1
2017-Oct-10 21:30N 49°02' W 123°35'1840.7
2017-Oct-10 21:04N 49°12' W 123°57'17252.5
2017-Oct-10 21:00N 49°03' W 123°35'17249.4
2017-Oct-10 20:56N 49°12' W 123°57'1535.4
2017-Oct-10 20:30N 49°05' W 123°36'15251.1
2017-Oct-10 20:27N 49°12' W 123°57'1432.6
2017-Oct-10 20:00N 49°07' W 123°36'14113.3
2017-Oct-10 19:53N 49°12' W 123°57'1334.0
2017-Oct-10 19:30N 49°10' W 123°37'1323766.2
2017-Oct-10 19:30N 49°12' W 123°57'1325.7
2017-Oct-10 19:00N 49°13' W 123°38'13102.1
2017-Oct-10 18:53N 49°12' W 123°57'1333.5
2017-Oct-10 18:30N 49°16' W 123°39'1335.1
2017-Oct-10 18:09N 49°12' W 123°57'1397.3
2017-Oct-10 18:00N 49°19' W 123°40'13208.8
2017-Oct-10 17:57N 49°12' W 123°57'1432.0
2017-Oct-10 17:30N 49°22' W 123°42'14382.1
2017-Oct-10 17:28N 49°12' W 123°57'1633.9
2017-Oct-10 17:00N 49°24' W 123°43'16347.1
2017-Oct-10 16:58N 49°12' W 123°57'1738.0
2017-Oct-10 16:30N 49°27' W 123°45'171981.0
2017-Oct-10 16:30N 49°12' W 123°57'1836.7
2017-Oct-10 16:00N 49°28' W 123°45'18574.7
2017-Oct-10 15:59N 49°12' W 123°57'1837.5
2017-Oct-10 15:30N 49°28' W 123°45'183013.6
2017-Oct-10 15:30N 49°12' W 123°57'3 5.4
2017-Oct-10 15:00N 49°14' W 123°53'165605.1
2017-Oct-10 15:00N 49°28' W 123°45'0 0.0
2017-Oct-10 14:00N 49°28' W 123°45'132301.7
2017-Oct-10 14:00N 49°15' W 123°46'1326.4
2017-Oct-10 13:30N 49°28' W 123°46'1345603.6
2017-Oct-10 13:30N 49°15' W 123°43'1121.7
2017-Oct-10 13:00N 49°26' W 123°45'11933.8
2017-Oct-10 13:00N 49°16' W 123°39'918.2
2017-Oct-10 12:30N 49°24' W 123°43'1035875.8
2017-Oct-10 12:30N 49°17' W 123°34'815.2
2017-Oct-10 12:00N 49°23' W 123°41'1035231.2
2017-Oct-10 12:00N 49°18' W 123°28'714.6
2017-Oct-10 11:30N 49°21' W 123°38'1119237.0
2017-Oct-10 11:30N 49°18' W 123°22'917.2
2017-Oct-10 11:00N 49°19' W 123°35'1345350.2
2017-Oct-10 11:00N 49°19' W 123°16'1122.4
2017-Oct-10 10:30N 49°17' W 123°33'1526944.2
2017-Oct-10 10:30N 49°19' W 123°10'3 6.0
2017-Oct-10 10:00N 49°18' W 123°06'172126.2
2017-Oct-10 10:00N 49°15' W 123°30'2041.0
2017-Oct-10 09:31N 49°18' W 123°00'192376.9
2017-Oct-10 09:30N 49°12' W 123°28'2040.4
2017-Oct-10 09:00N 49°17' W 122°58'199744.2
2017-Oct-10 09:00N 49°10' W 123°25'1938.3
2017-Oct-10 08:30N 49°17' W 122°58'183604.1
2017-Oct-10 08:30N 49°08' W 123°22'2 4.3
2017-Oct-10 08:00N 49°07' W 123°20'1864552.9
2017-Oct-10 08:00N 49°17' W 122°58'0 0.0
2017-Oct-10 07:30N 49°17' W 122°58'153135.0
2017-Oct-10 07:30N 49°07' W 123°15'1529.9
2017-Oct-10 07:00N 49°17' W 122°58'13967.2
2017-Oct-10 07:00N 49°07' W 123°09'4 7.4
2017-Oct-10 06:30N 49°08' W 123°04'1037383.8
2017-Oct-10 06:30N 49°17' W 122°58'1123.0
2017-Oct-10 06:00N 49°07' W 123°06'1122.9
2017-Oct-10 05:30N 49°17' W 122°58'13823.2
2017-Oct-10 05:29N 49°07' W 123°12'1327.4
2017-Oct-10 05:00N 49°17' W 122°58'136740.7
2017-Oct-10 05:00N 49°07' W 123°11'1326.3
2017-Oct-10 04:30N 49°17' W 122°58'13674.3
2017-Oct-10 04:29N 49°07' W 123°11'1327.3
2017-Oct-10 04:00N 49°17' W 122°58'135902.2
2017-Oct-10 04:00N 49°07' W 123°11'1326.3
2017-Oct-10 03:30N 49°17' W 122°58'136743.0
2017-Oct-10 03:30N 49°07' W 123°11'1326.4
2017-Oct-10 03:00N 49°17' W 122°58'131573.4
2017-Oct-10 03:00N 49°07' W 123°11'1326.6
2017-Oct-10 02:30N 49°17' W 122°58'135242.8
2017-Oct-10 02:30N 49°07' W 123°11'1326.4
2017-Oct-10 02:00N 49°17' W 122°58'135246.4
2017-Oct-10 02:00N 49°07' W 123°11'1326.4
2017-Oct-10 01:30N 49°17' W 122°58'135244.6
2017-Oct-10 01:30N 49°07' W 123°11'1326.4
2017-Oct-10 01:00N 49°17' W 122°58'0 0.0
2017-Oct-10 00:30N 49°17' W 122°58'136743.0
2017-Oct-10 00:30N 49°07' W 123°11'0 0.0
2017-Oct-10 00:00N 49°07' W 123°11'0 0.0
2017-Oct-09 23:30N 49°07' W 123°11'1315733.8
2017-Oct-09 23:30N 49°17' W 122°58'1326.3
2017-Oct-09 23:00N 49°07' W 123°11'1347184.8
2017-Oct-09 23:00N 49°17' W 122°58'0 0.0
2017-Oct-09 22:30N 49°17' W 122°58'13239.6
2017-Oct-09 22:27N 49°07' W 123°11'1329.2
2017-Oct-09 22:00N 49°17' W 122°59'1 2.5
2017-Oct-09 21:30N 49°18' W 122°57'2 3.7
2017-Oct-09 21:00N 49°17' W 122°54'3 5.9
2017-Oct-09 20:30N 49°18' W 122°58'0 0.3
2017-Oct-09 20:00N 49°17' W 122°58'0 0.0
2017-Oct-09 19:30N 49°17' W 122°58'0 0.0
2017-Oct-09 19:00N 49°17' W 122°58'13152.3
2017-Oct-09 18:55N 49°07' W 123°11'1331.7
2017-Oct-09 18:30N 49°17' W 122°58'13314.8
2017-Oct-09 18:28N 49°07' W 123°11'1 1.8
2017-Oct-09 18:00N 49°08' W 123°13'1448735.8
2017-Oct-09 18:00N 49°17' W 122°58'1836.4
2017-Oct-09 17:30N 49°05' W 123°19'185949.2
2017-Oct-09 17:30N 49°17' W 122°58'0 0.0
2017-Oct-09 17:00N 49°17' W 122°58'223927.3
2017-Oct-09 17:00N 49°00' W 123°19'5 9.8
2017-Oct-09 16:30N 48°55' W 123°18'2692316.5
2017-Oct-09 16:30N 49°17' W 122°58'2 4.3
2017-Oct-09 16:00N 49°18' W 122°55'312838.2
2017-Oct-09 16:00N 48°52' W 123°20'3163.2
2017-Oct-09 15:30N 49°18' W 122°55'3511386.8
2017-Oct-09 15:30N 48°47' W 123°20'3467.9
2017-Oct-09 15:00N 49°17' W 122°58'0 0.1
2017-Oct-09 14:30N 49°17' W 122°58'435219.6
2017-Oct-09 14:30N 48°36' W 123°20'611.4
2017-Oct-09 14:00N 48°31' W 123°18'5 9.7
2017-Oct-09 13:30N 48°26' W 123°16'5318976.8
2017-Oct-09 13:30N 49°17' W 122°58'56112.0
2017-Oct-09 13:00N 48°24' W 123°22'5639970.8
2017-Oct-09 13:00N 49°17' W 122°58'54107.7
2017-Oct-09 12:30N 48°26' W 123°22'5438678.8
2017-Oct-09 12:30N 49°17' W 122°58'55109.4
2017-Oct-09 12:00N 48°25' W 123°23'5539264.1
2017-Oct-09 12:00N 49°17' W 122°58'0 0.0
2017-Oct-09 11:30N 49°17' W 122°58'5633582.2
2017-Oct-09 11:30N 48°24' W 123°24'1 1.5
2017-Oct-09 11:00N 48°24' W 123°23'5650494.1
2017-Oct-09 11:00N 49°17' W 122°58'56111.9
2017-Oct-09 10:30N 48°24' W 123°21'5650282.2
2017-Oct-09 10:30N 49°17' W 122°58'56112.0
2017-Oct-09 10:00N 48°23' W 123°20'5640200.6
2017-Oct-09 10:00N 49°17' W 122°58'56111.3
2017-Oct-09 09:30N 48°23' W 123°18'5649971.3
2017-Oct-09 09:30N 49°17' W 122°58'  
Track history (hours):
 
Tides and Currents Weather Stations Pressure Air Temp Water Temp Dewpoint Dewpoint Depression Visibility Wind Speed Wind Dir Waves Ship Positions

Storm Wave

Last reported at 2017-Oct-19 09:30 UTC. Time now 2017-Oct-19 09:39 UTC.
Position N 49°13' W 123°09'.

Length 19 m; draft 4.2 m.

Type: Tug. MMSI: 316001222.

Date/timePositionNaut miles runAvg speedWind from/ knotsBaromVisibWave heightAir tempDewpointWater temp
2017-Oct-19 09:30N 49°13' W 123°09'4 7.5
2017-Oct-19 09:00N 49°14' W 123°15'1 2.1
2017-Oct-19 08:30N 49°15' W 123°16'2 4.4
2017-Oct-19 08:00N 49°16' W 123°19'4 7.5
2017-Oct-19 07:30N 49°18' W 123°23'4 7.5
2017-Oct-19 07:00N 49°20' W 123°28'4 7.1
2017-Oct-19 06:30N 49°22' W 123°33'4 7.1
2017-Oct-19 06:00N 49°23' W 123°38'4 7.5
2017-Oct-19 05:30N 49°25' W 123°43'3 6.5
2017-Oct-19 05:00N 49°28' W 123°45'2 3.0
2017-Oct-19 04:30N 49°26' W 123°45'1 2.3
2017-Oct-19 04:00N 49°28' W 123°45'1 2.8
2017-Oct-19 03:30N 49°27' W 123°47'1 2.6
2017-Oct-19 03:00N 49°27' W 123°45'1 2.2
2017-Oct-19 02:30N 49°27' W 123°46'1 2.1
2017-Oct-19 02:00N 49°26' W 123°46'1 2.5
2017-Oct-19 01:30N 49°27' W 123°44'1 2.5
2017-Oct-19 01:00N 49°27' W 123°46'1 2.9
2017-Oct-19 00:30N 49°28' W 123°48'1 2.9
2017-Oct-19 00:00N 49°28' W 123°50'1 2.2
2017-Oct-18 23:30N 49°27' W 123°51'2 4.3
2017-Oct-18 23:00N 49°26' W 123°48'2 4.3
2017-Oct-18 22:30N 49°24' W 123°45'2 4.6
2017-Oct-18 22:00N 49°23' W 123°43'3 5.6
2017-Oct-18 21:30N 49°21' W 123°40'3 5.5
2017-Oct-18 21:00N 49°19' W 123°37'3 5.3
2017-Oct-18 20:30N 49°17' W 123°34'3 5.9
2017-Oct-18 20:00N 49°15' W 123°31'4 7.0
2017-Oct-18 19:30N 49°12' W 123°27'4 8.0
2017-Oct-18 19:00N 49°09' W 123°23'4 7.0
2017-Oct-18 18:30N 49°06' W 123°20'510.3
2017-Oct-18 18:00N 49°08' W 123°13'511.0
2017-Oct-18 17:30N 49°07' W 123°04'510.0
2017-Oct-18 17:00N 49°09' W 122°57'5 9.1
2017-Oct-18 16:30N 49°13' W 122°53'5 9.3
2017-Oct-18 16:00N 49°13' W 122°46'4 8.3
2017-Oct-18 15:30N 49°12' W 122°40'1461.1
2017-Oct-18 15:17N 49°17' W 122°58'0 0.0
2017-Oct-18 15:00N 49°17' W 122°58'121027.1
2017-Oct-18 15:00N 49°12' W 122°42'1211.7
2017-Oct-18 14:00N 49°18' W 122°58'7814.1
2017-Oct-18 14:00N 49°11' W 122°55'713.4
2017-Oct-18 13:30N 49°18' W 122°58'8980.7
2017-Oct-18 13:30N 49°09' W 122°60'0 0.7
2017-Oct-18 13:00N 49°09' W 123°00'816.4
2017-Oct-18 12:30N 49°17' W 122°58'8777.6
2017-Oct-18 12:30N 49°09' W 123°00'0 0.0
2017-Oct-18 12:00N 49°09' W 123°00'0 0.0
2017-Oct-18 11:30N 49°09' W 123°00'814764.4
2017-Oct-18 11:30N 49°17' W 122°58'816.4
2017-Oct-18 11:00N 49°09' W 123°00'0 0.0
2017-Oct-18 10:30N 49°09' W 123°00'1 2.1
2017-Oct-18 10:00N 49°10' W 122°59'1 2.1
2017-Oct-18 09:30N 49°09' W 123°00'3 6.8
2017-Oct-18 09:00N 49°07' W 123°05'4 7.4
2017-Oct-18 08:30N 49°07' W 123°10'3 6.6
2017-Oct-18 08:00N 49°07' W 123°15'3 6.6
2017-Oct-18 07:30N 49°06' W 123°19'4 9.0
2017-Oct-18 07:00N 49°01' W 123°18'5 9.1
2017-Oct-18 06:30N 48°57' W 123°18'5 9.4
2017-Oct-18 06:00N 48°52' W 123°19'3 6.6
2017-Oct-18 05:30N 48°49' W 123°21'4 7.6
2017-Oct-18 05:00N 48°45' W 123°20'8 7.4
2017-Oct-18 03:55N 48°37' W 123°23'4 7.7
2017-Oct-18 03:21N 48°33' W 123°21'3 7.6
2017-Oct-18 03:00N 48°31' W 123°19'4 7.4
2017-Oct-18 02:30N 48°28' W 123°16'3 6.6
2017-Oct-18 02:01N 48°25' W 123°17'3 6.0
2017-Oct-18 01:30N 48°24' W 123°22'2 4.0
2017-Oct-18 01:00N 48°26' W 123°22'0 0.1
2017-Oct-18 00:30N 48°26' W 123°22'0 0.3
2017-Oct-18 00:00N 48°26' W 123°23'0 0.0
2017-Oct-17 23:30N 48°26' W 123°23'0 0.0
2017-Oct-17 23:01N 48°26' W 123°23'0 0.0
2017-Oct-17 22:30N 48°26' W 123°23'0 0.0
2017-Oct-17 22:00N 48°26' W 123°23'0 0.0
2017-Oct-17 21:30N 48°26' W 123°23'0 0.1
2017-Oct-17 21:00N 48°26' W 123°23'0 0.1
2017-Oct-17 20:30N 48°26' W 123°23'0 0.0
2017-Oct-17 20:00N 48°26' W 123°23'0 0.0
2017-Oct-17 19:30N 48°26' W 123°23'0 0.0
2017-Oct-17 19:00N 48°26' W 123°23'0 0.0
2017-Oct-17 18:30N 48°26' W 123°23'0 0.0
2017-Oct-17 18:00N 48°26' W 123°23'0 0.0
2017-Oct-17 17:30N 48°26' W 123°23'0 0.1
2017-Oct-17 17:00N 48°26' W 123°22'0 0.1
2017-Oct-17 16:30N 48°26' W 123°23'0 0.1
2017-Oct-17 16:00N 48°26' W 123°23'0 0.1
2017-Oct-17 15:30N 48°26' W 123°23'0 0.1
2017-Oct-17 15:00N 48°26' W 123°23'0 0.1
2017-Oct-17 14:30N 48°26' W 123°23'0 0.0
2017-Oct-17 14:00N 48°26' W 123°23'0 0.0
2017-Oct-17 13:30N 48°26' W 123°23'0 0.0
2017-Oct-17 13:00N 48°26' W 123°23'0 0.0
2017-Oct-17 12:30N 48°26' W 123°23'0 0.0
2017-Oct-17 12:00N 48°26' W 123°23'0 0.0
2017-Oct-17 11:30N 48°26' W 123°23'0 0.0
2017-Oct-17 11:00N 48°26' W 123°23'0 0.0
2017-Oct-17 10:30N 48°26' W 123°23'0 0.2
2017-Oct-17 10:00N 48°26' W 123°22'1 3.0
2017-Oct-17 09:30N 48°25' W 123°24'2 4.5
2017-Oct-17 09:00N 48°24' W 123°21'3 5.1
2017-Oct-17 08:30N 48°25' W 123°17'3 6.2
2017-Oct-17 08:00N 48°28' W 123°15'3 6.8
2017-Oct-17 07:30N 48°31' W 123°17'4 7.0
2017-Oct-17 07:00N 48°34' W 123°19'12 7.2
2017-Oct-17 05:20N 48°46' W 123°20'3 7.6
2017-Oct-17 05:00N 48°49' W 123°21'3 6.0
2017-Oct-17 04:30N 48°52' W 123°20'2960.3
2017-Oct-17 04:01N 49°17' W 122°58'0 0.0
2017-Oct-17 04:01N 49°17' W 122°58'2610328.9
2017-Oct-17 04:00N 48°55' W 123°18'2652.0
2017-Oct-17 03:31N 49°18' W 122°59'232819.7
2017-Oct-17 03:30N 48°59' W 123°19'2244.0
2017-Oct-17 03:01N 49°18' W 123°02'198565.4
2017-Oct-17 03:00N 49°02' W 123°19'1835.8
2017-Oct-17 02:31N 49°18' W 123°07'14527.5
2017-Oct-17 02:29N 49°06' W 123°19'1327.8
2017-Oct-17 02:01N 49°19' W 123°13'11502.5
2017-Oct-17 01:59N 49°08' W 123°13'1122.3
2017-Oct-17 01:31N 49°18' W 123°17'135843.6
2017-Oct-17 01:30N 49°07' W 123°08'1529.3
2017-Oct-17 01:01N 49°17' W 123°24'161036.7
2017-Oct-17 01:00N 49°08' W 123°04'1939.0
2017-Oct-17 00:31N 49°17' W 123°30'209214.7
2017-Oct-17 00:30N 49°09' W 123°00'1 2.3
2017-Oct-17 00:00N 49°09' W 123°02'236944.2
2017-Oct-17 00:00N 49°16' W 123°36'2345.7
2017-Oct-16 23:30N 49°08' W 123°03'27596.3
2017-Oct-16 23:28N 49°15' W 123°42'2758.3
2017-Oct-16 23:00N 49°08' W 123°03'308952.5
2017-Oct-16 23:00N 49°14' W 123°48'4 7.8
2017-Oct-16 22:31N 49°13' W 123°54'3013593.5
2017-Oct-16 22:30N 49°06' W 123°09'3264.3
2017-Oct-16 22:01N 49°12' W 123°57'2714075.1
2017-Oct-16 22:00N 49°07' W 123°16'4 8.2
2017-Oct-16 21:30N 49°07' W 123°22'233993.3
2017-Oct-16 21:30N 49°12' W 123°57'0 0.0
2017-Oct-16 21:00N 49°12' W 123°57'204131.4
2017-Oct-16 21:00N 49°10' W 123°27'2040.3
2017-Oct-16 20:31N 49°12' W 123°57'161426.2
2017-Oct-16 20:30N 49°12' W 123°33'1632.4
2017-Oct-16 20:01N 49°12' W 123°57'13476.1
2017-Oct-16 19:59N 49°14' W 123°38'5 9.9
2017-Oct-16 19:30N 49°10' W 123°35'15293.0
2017-Oct-16 19:27N 49°12' W 123°57'0 0.0
2017-Oct-16 19:00N 49°12' W 123°57'176755.1
2017-Oct-16 19:00N 49°05' W 123°33'5 9.1
2017-Oct-16 18:30N 49°01' W 123°35'1853.1
2017-Oct-16 18:09N 49°12' W 123°57'22132.5
2017-Oct-16 17:59N 48°57' W 123°32'2282.5
2017-Oct-16 17:43N 49°12' W 123°57'27129.1
2017-Oct-16 17:30N 48°53' W 123°26'610.2
2017-Oct-16 16:56N 48°49' W 123°21'4 9.1
2017-Oct-16 16:28N 48°44' W 123°20'3641.5
2017-Oct-16 15:35N 49°12' W 123°57'42572.4
2017-Oct-16 15:31N 48°37' W 123°20'0 7.9
2017-Oct-16 15:28N 48°36' W 123°20'431243.3
2017-Oct-16 15:26N 49°12' W 123°57'46107.8
2017-Oct-16 15:00N 48°33' W 123°19'46441.7
2017-Oct-16 14:54N 49°12' W 123°57'0 0.0
2017-Oct-16 14:30N 49°12' W 123°57'53106.5
2017-Oct-16 14:00N 48°26' W 123°16'3 6.8
2017-Oct-16 13:30N 48°24' W 123°19'552704.8
2017-Oct-16 13:29N 49°12' W 123°57'52109.5
2017-Oct-16 13:00N 48°25' W 123°24'5246551.0
2017-Oct-16 13:00N 49°12' W 123°56'2 4.2
2017-Oct-16 12:31N 49°14' W 123°53'5231143.5
2017-Oct-16 12:30N 48°26' W 123°22'52103.9
2017-Oct-16 12:01N 49°14' W 123°50'5337850.5
2017-Oct-16 12:00N 48°25' W 123°24'1 2.2
2017-Oct-16 11:30N 48°24' W 123°23'5438616.6
2017-Oct-16 11:30N 49°15' W 123°46'55110.2
2017-Oct-16 11:00N 48°23' W 123°19'5515211.2
2017-Oct-16 11:00N 49°16' W 123°43'55110.3
2017-Oct-16 10:30N 48°25' W 123°14'554680.6
2017-Oct-16 10:30N 49°17' W 123°39'52105.9
2017-Oct-16 10:00N 48°28' W 123°12'5192387.2
2017-Oct-16 10:00N 49°17' W 123°35'3 5.3
2017-Oct-16 09:31N 49°17' W 123°31'4834251.3
2017-Oct-16 09:30N 48°31' W 123°13'4795.0
2017-Oct-16 09:01N 49°18' W 123°27'4426503.1
2017-Oct-16 09:00N 48°35' W 123°14'4488.0
2017-Oct-16 08:30N 49°18' W 123°24'412230.9
2017-Oct-16 08:29N 48°38' W 123°15'4185.7
2017-Oct-16 08:01N 49°19' W 123°20'383689.2
2017-Oct-16 08:00N 48°41' W 123°16'3878.3
2017-Oct-16 07:31N 49°19' W 123°15'35869.6
2017-Oct-16 07:28N 48°44' W 123°17'3576.9
2017-Oct-16 07:01N 49°19' W 123°10'331606.3
2017-Oct-16 06:59N 48°46' W 123°20'3369.0
2017-Oct-16 06:31N 49°18' W 123°05'312387.2
2017-Oct-16 06:30N 48°49' W 123°21'3264.8
2017-Oct-16 06:01N 49°18' W 123°00'293004.5
2017-Oct-16 06:00N 48°52' W 123°20'3060.6
2017-Oct-16 05:31N 49°18' W 122°59'282253.9
2017-Oct-16 05:30N 48°53' W 123°18'2756.0
2017-Oct-16 05:01N 49°17' W 122°58'242413.1
2017-Oct-16 05:00N 48°57' W 123°18'2449.2
2017-Oct-16 04:31N 49°17' W 122°58'21786.1
2017-Oct-16 04:29N 49°02' W 123°19'2144.3
2017-Oct-16 04:01N 49°17' W 122°58'1810721.8
2017-Oct-16 04:00N 49°06' W 123°19'1835.9
2017-Oct-16 03:31N 49°17' W 122°58'131348.7
2017-Oct-16 03:30N 49°08' W 123°12'1327.5
2017-Oct-16 03:01N 49°17' W 122°58'111582.8
2017-Oct-16 03:00N 49°07' W 123°05'1123.2
2017-Oct-16 02:31N 49°17' W 122°58'84942.8
2017-Oct-16 02:30N 49°09' W 123°00'816.5
2017-Oct-16 02:01N 49°17' W 122°58'105856.7
2017-Oct-16 02:00N 49°08' W 123°03'1019.6
2017-Oct-16 01:31N 49°17' W 122°58'137808.0
2017-Oct-16 01:30N 49°07' W 123°10'1326.1
2017-Oct-16 01:01N 49°17' W 122°58'131348.1
2017-Oct-16 01:00N 49°07' W 123°11'1326.7
2017-Oct-16 00:31N 49°17' W 122°58'132948.0
2017-Oct-16 00:30N 49°07' W 123°11'1326.3
2017-Oct-16 00:00N 49°17' W 122°58'131685.2
2017-Oct-16 00:00N 49°07' W 123°11'1326.7
2017-Oct-15 23:31N 49°17' W 122°58'13842.6
2017-Oct-15 23:30N 49°07' W 123°11'1327.1
2017-Oct-15 23:01N 49°17' W 122°58'131310.2
2017-Oct-15 23:00N 49°07' W 123°11'1326.7
2017-Oct-15 22:31N 49°17' W 122°58'13827.5
2017-Oct-15 22:30N 49°07' W 123°11'1327.1
2017-Oct-15 22:01N 49°17' W 122°58'131348.1
2017-Oct-15 22:00N 49°07' W 123°11'1326.7
2017-Oct-15 21:31N 49°17' W 122°58'13842.3
2017-Oct-15 21:30N 49°07' W 123°11'1327.1
2017-Oct-15 21:01N 49°17' W 122°58'13132.2
2017-Oct-15 20:55N 49°07' W 123°11'1332.7
2017-Oct-15 20:31N 49°17' W 122°58'131310.2
2017-Oct-15 20:30N 49°07' W 123°11'1326.7
2017-Oct-15 20:01N 49°17' W 122°58'132957.3
2017-Oct-15 20:00N 49°07' W 123°11'1326.5
2017-Oct-15 19:31N 49°17' W 122°58'13556.5
2017-Oct-15 19:29N 49°07' W 123°11'1429.4
2017-Oct-15 19:01N 49°18' W 122°57'141439.0
2017-Oct-15 19:00N 49°07' W 123°11'1531.1
2017-Oct-15 18:31N 49°17' W 122°54'151192.5
2017-Oct-15 18:30N 49°07' W 123°11'1428.3
2017-Oct-15 18:00N 49°18' W 122°57'1311630.1
2017-Oct-15 18:00N 49°07' W 123°07'1224.8
2017-Oct-15 17:31N 49°17' W 122°58'84902.9
2017-Oct-15 17:30N 49°09' W 122°60'816.4
2017-Oct-15 17:01N 49°17' W 122°58'8638.9
2017-Oct-15 17:00N 49°09' W 122°59'816.4
2017-Oct-15 16:31N 49°17' W 122°58'6872.8
2017-Oct-15 16:30N 49°12' W 122°54'510.2
2017-Oct-15 16:00N 49°13' W 122°46'911092.9
2017-Oct-15 16:00N 49°17' W 122°58'0 0.0
2017-Oct-15 15:31N 49°17' W 122°58'143079.3
2017-Oct-15 15:30N 49°12' W 122°39'1 2.7
2017-Oct-15 15:00N 49°12' W 122°42'1222222.7
2017-Oct-15 15:00N 49°17' W 122°58'3 2.9
2017-Oct-15 14:01N 49°17' W 122°54'53621.9
2017-Oct-15 14:00N 49°12' W 122°54'611.7
2017-Oct-15 13:31N 49°18' W 122°58'8655.8
2017-Oct-15 13:30N 49°09' W 122°58'816.5
2017-Oct-15 13:01N 49°17' W 122°58'82015.6
2017-Oct-15 13:00N 49°09' W 123°00'816.8
2017-Oct-15 12:30N 49°17' W 122°58'81778.1
2017-Oct-15 12:30N 49°10' W 122°59'816.0
2017-Oct-15 12:01N 49°17' W 122°58'85750.4
2017-Oct-15 12:00N 49°09' W 122°59'816.0
2017-Oct-15 11:31N 49°17' W 122°58'95467.2
2017-Oct-15 11:30N 49°09' W 123°02'918.3
2017-Oct-15 11:01N 49°17' W 122°58'127110.4
2017-Oct-15 11:00N 49°07' W 123°06'1223.8
2017-Oct-15 10:31N 49°17' W 122°58'131846.5
2017-Oct-15 10:30N 49°07' W 123°11'1327.1
2017-Oct-15 10:01N 49°17' W 122°58'153669.5
2017-Oct-15 10:00N 49°07' W 123°16'1530.8
2017-Oct-15 09:31N 49°17' W 122°58'194222.9
2017-Oct-15 09:30N 49°05' W 123°20'1937.7
2017-Oct-15 09:00N 49°17' W 122°58'212900.5
2017-Oct-15 09:00N 49°01' W 123°18'2142.8
2017-Oct-15 08:31N 49°17' W 122°58'245030.4
2017-Oct-15 08:30N 48°57' W 123°17'2448.0
2017-Oct-15 08:01N 49°17' W 122°58'276172.7
2017-Oct-15 08:00N 48°53' W 123°18'2755.4
2017-Oct-15 07:31N 49°17' W 122°58'316880.3
2017-Oct-15 07:30N 48°51' W 123°21'3161.7
2017-Oct-15 07:01N 49°17' W 122°58'343450.0
2017-Oct-15 07:00N 48°47' W 123°21'5 7.9
2017-Oct-15 06:20N 48°42' W 123°21'5 7.8
2017-Oct-15 05:45N 48°37' W 123°21'2 8.0
2017-Oct-15 05:30N 48°36' W 123°19'4 7.5
2017-Oct-15 05:00N 48°32' W 123°18'4 7.6
2017-Oct-15 04:30N 48°29' W 123°16'3 6.4
2017-Oct-15 04:00N 48°26' W 123°17'3 5.9
2017-Oct-15 03:30N 48°24' W 123°20'3 5.4
2017-Oct-15 03:00N 48°25' W 123°24'1 2.2
2017-Oct-15 02:30N 48°26' W 123°22'0 0.3
2017-Oct-15 02:00N 48°26' W 123°23'0 0.5
2017-Oct-15 01:30N 48°26' W 123°22'0 0.0
2017-Oct-15 01:00N 48°26' W 123°22'0 0.0
2017-Oct-15 00:30N 48°26' W 123°22'0 0.0
2017-Oct-15 00:00N 48°26' W 123°22'0 0.0
2017-Oct-14 23:30N 48°26' W 123°22'0 0.0
2017-Oct-14 23:00N 48°26' W 123°22'0 0.0
2017-Oct-14 22:30N 48°26' W 123°22'0 0.0
2017-Oct-14 22:00N 48°26' W 123°22'0 0.0
2017-Oct-14 21:30N 48°26' W 123°22'0 0.0
2017-Oct-14 21:00N 48°26' W 123°22'0 0.0
2017-Oct-14 20:30N 48°26' W 123°22'0 0.0
2017-Oct-14 20:00N 48°26' W 123°22'0 0.0
2017-Oct-14 19:30N 48°26' W 123°22'0 0.0
2017-Oct-14 19:00N 48°26' W 123°22'0 0.0
2017-Oct-14 18:30N 48°26' W 123°22'0 0.0
2017-Oct-14 18:00N 48°26' W 123°22'0 0.0
2017-Oct-14 17:30N 48°26' W 123°22'0 0.0
2017-Oct-14 17:00N 48°26' W 123°22'0 0.0
2017-Oct-14 16:30N 48°26' W 123°22'0 0.0
2017-Oct-14 16:00N 48°26' W 123°22'0 0.0
2017-Oct-14 15:30N 48°26' W 123°22'54234.4
2017-Oct-14 15:17N 49°18' W 122°59'54201.2
2017-Oct-14 15:00N 48°26' W 123°22'546241.9
2017-Oct-14 15:00N 49°18' W 123°00'54109.4
2017-Oct-14 14:30N 48°26' W 123°22'5464377.5
2017-Oct-14 14:30N 49°18' W 123°02'54107.5
2017-Oct-14 14:00N 48°26' W 123°22'5395966.2
2017-Oct-14 14:00N 49°18' W 123°04'53106.5
2017-Oct-14 13:30N 48°26' W 123°23'5464644.8
2017-Oct-14 13:30N 49°18' W 123°00'54108.3
2017-Oct-14 13:00N 48°26' W 123°22'5438893.7
2017-Oct-14 13:00N 49°17' W 122°58'54108.3
2017-Oct-14 12:30N 48°26' W 123°22'5448612.0
2017-Oct-14 12:30N 49°17' W 122°58'54108.2
2017-Oct-14 12:00N 48°26' W 123°22'5464822.9
2017-Oct-14 12:00N 49°17' W 122°58'54108.2
2017-Oct-14 11:30N 48°26' W 123°22'5464829.8
2017-Oct-14 11:30N 49°17' W 122°58'54108.3
2017-Oct-14 11:00N 48°26' W 123°22'5438889.6
2017-Oct-14 11:00N 49°17' W 122°58'54108.2
2017-Oct-14 10:30N 48°26' W 123°22'5464809.1
2017-Oct-14 10:30N 49°17' W 122°58'54108.2
2017-Oct-14 10:00N 48°26' W 123°22'5497244.6
2017-Oct-14 10:00N 49°17' W 122°58'54108.2
2017-Oct-14 09:30N 48°26' W 123°22'5464816.0
2017-Oct-14 09:30N 49°17' W 122°58'54108.3
2017-Oct-14 09:00N 48°26' W 123°22'5464822.9
2017-Oct-14 09:00N 49°17' W 122°58'54108.2
2017-Oct-14 08:30N 48°26' W 123°22'5448617.2
2017-Oct-14 08:30N 49°17' W 122°58'54108.2
2017-Oct-14 08:00N 48°26' W 123°22'54194468.6
2017-Oct-14 08:00N 49°17' W 122°58'54108.2
2017-Oct-14 07:30N 48°26' W 123°22'5412963.2
2017-Oct-14 07:30N 49°17' W 122°58'54108.5
2017-Oct-14 07:00N 48°26' W 123°23'5496672.4
2017-Oct-14 07:00N 49°18' W 123°00'4 7.2
2017-Oct-14 06:30N 49°18' W 123°06'55110.0
2017-Oct-14 06:00N 48°24' W 123°24'5598852.7
2017-Oct-14 06:00N 49°19' W 123°12'55111.0
2017-Oct-14 05:30N 48°24' W 123°20'5598311.7
2017-Oct-14 05:30N 49°18' W 123°17'54107.6
2017-Oct-14 05:00N 48°24' W 123°17'53191563.7
2017-Oct-14 05:00N 49°17' W 123°23'51102.4
2017-Oct-14 04:30N 48°27' W 123°16'515890.5
2017-Oct-14 04:30N 49°16' W 123°29'4998.7
2017-Oct-14 04:00N 48°29' W 123°14'3 6.8
2017-Oct-14 03:30N 48°32' W 123°13'4613917.6
2017-Oct-14 03:30N 49°15' W 123°41'4 8.5
2017-Oct-14 03:00N 49°14' W 123°47'445713.4
2017-Oct-14 03:00N 48°35' W 123°14'4692.1
2017-Oct-14 02:30N 49°13' W 123°54'4319411.8
2017-Oct-14 02:30N 48°38' W 123°15'4386.1
2017-Oct-14 02:00N 49°12' W 123°57'0 0.0
2017-Oct-14 01:08N 49°12' W 123°57'0 0.0
2017-Oct-14 00:58N 49°12' W 123°57'0 0.0
2017-Oct-14 00:28N 49°12' W 123°57'31881.5
2017-Oct-14 00:26N 48°51' W 123°21'3170.3
2017-Oct-14 00:00N 49°12' W 123°57'32461.4
2017-Oct-13 23:56N 48°53' W 123°18'3 5.4
2017-Oct-13 23:26N 48°55' W 123°19'30301.9
2017-Oct-13 23:20N 49°12' W 123°57'2780.1
2017-Oct-13 23:00N 48°57' W 123°22'272932.6
2017-Oct-13 23:00N 49°12' W 123°57'0 0.0
2017-Oct-13 22:30N 49°12' W 123°57'2412283.7
2017-Oct-13 22:30N 48°60' W 123°25'3 5.6
2017-Oct-13 22:00N 49°02' W 123°28'213641.7
2017-Oct-13 22:00N 49°12' W 123°57'0 0.0
2017-Oct-13 21:30N 49°12' W 123°57'193794.9
2017-Oct-13 21:30N 49°04' W 123°30'1938.3
2017-Oct-13 21:00N 49°12' W 123°57'177704.1
2017-Oct-13 21:00N 49°07' W 123°32'1733.6
2017-Oct-13 20:30N 49°12' W 123°57'163139.1
2017-Oct-13 20:29N 49°09' W 123°33'3 5.6
2017-Oct-13 20:00N 49°12' W 123°35'15432.8
2017-Oct-13 19:58N 49°12' W 123°57'1429.9
2017-Oct-13 19:30N 49°14' W 123°36'14808.3
2017-Oct-13 19:29N 49°12' W 123°57'1427.9
2017-Oct-13 19:00N 49°17' W 123°38'14152.5
2017-Oct-13 18:55N 49°12' W 123°57'1434.5
2017-Oct-13 18:30N 49°19' W 123°39'144574.2
2017-Oct-13 18:30N 49°12' W 123°57'1529.3
2017-Oct-13 18:00N 49°22' W 123°41'15113.9
2017-Oct-13 17:53N 49°12' W 123°57'1541.6
2017-Oct-13 17:30N 49°24' W 123°43'15456.1
2017-Oct-13 17:28N 49°12' W 123°57'1736.6
2017-Oct-13 17:00N 49°27' W 123°44'171459.9
2017-Oct-13 17:00N 49°12' W 123°57'1837.2
2017-Oct-13 16:30N 49°28' W 123°45'18697.9
2017-Oct-13 16:29N 49°12' W 123°57'1 1.5
2017-Oct-13 16:00N 49°12' W 123°56'178695.8
2017-Oct-13 16:00N 49°28' W 123°46'1 2.9
2017-Oct-13 15:30N 49°27' W 123°44'162734.9
2017-Oct-13 15:30N 49°12' W 123°55'1631.7
2017-Oct-13 15:00N 49°25' W 123°41'1526890.9
2017-Oct-13 15:00N 49°12' W 123°53'1530.9
2017-Oct-13 14:30N 49°23' W 123°36'1450800.6
2017-Oct-13 14:30N 49°13' W 123°51'1631.0
2017-Oct-13 14:00N 49°21' W 123°31'1425488.1
2017-Oct-13 14:00N 49°14' W 123°49'1632.8
2017-Oct-13 13:30N 49°19' W 123°26'154451.0
2017-Oct-13 13:30N 49°14' W 123°47'1835.5
2017-Oct-13 13:00N 49°17' W 123°21'164366.4
2017-Oct-13 13:00N 49°15' W 123°45'1837.1
2017-Oct-13 12:30N 49°15' W 123°16'171928.4
2017-Oct-13 12:30N 49°15' W 123°42'1938.9
2017-Oct-13 12:00N 49°13' W 123°12'17557.1
2017-Oct-13 11:58N 49°16' W 123°39'2043.9
2017-Oct-13 11:30N 49°12' W 123°08'1967408.2
2017-Oct-13 11:30N 49°16' W 123°36'2041.0
2017-Oct-13 11:00N 49°12' W 123°05'195170.4
2017-Oct-13 11:00N 49°16' W 123°33'2 4.5
2017-Oct-13 10:30N 49°17' W 123°30'163413.2
2017-Oct-13 10:30N 49°12' W 123°06'2 3.1
2017-Oct-13 10:00N 49°12' W 123°04'1628027.7
2017-Oct-13 10:00N 49°18' W 123°26'1938.3
2017-Oct-13 09:30N 49°11' W 122°59'1762096.3
2017-Oct-13 09:30N 49°18' W 123°23'2 4.5
2017-Oct-13 09:00N 49°19' W 123°19'1851.4
2017-Oct-13 08:40N 49°12' W 122°54'1 9.1
2017-Oct-13 08:30N 49°13' W 122°52'1529.5
2017-Oct-13 08:00N 49°19' W 123°13'201055.0
2017-Oct-13 07:59N 49°13' W 122°44'1836.7
2017-Oct-13 07:30N 49°19' W 123°09'211094.4
2017-Oct-13 07:29N 49°12' W 122°40'0 0.0
2017-Oct-13 07:00N 49°12' W 122°40'1821497.8
2017-Oct-13 07:00N 49°18' W 123°05'3 5.5
2017-Oct-13 06:30N 49°18' W 123°01'15264.0
2017-Oct-13 06:27N 49°12' W 122°41'1329.0
2017-Oct-13 06:00N 49°18' W 122°58'112126.8
2017-Oct-13 06:00N 49°13' W 122°43'2 3.9
2017-Oct-13 05:30N 49°13' W 122°46'916883.7
2017-Oct-13 05:30N 49°17' W 122°58'0 0.0
2017-Oct-13 05:00N 49°17' W 122°58'81501.3
2017-Oct-13 05:00N 49°13' W 122°49'2 4.3
2017-Oct-13 04:30N 49°13' W 122°52'61799.8
2017-Oct-13 04:30N 49°17' W 122°58'0 0.0
2017-Oct-13 04:00N 49°17' W 122°58'63680.1
2017-Oct-13 04:00N 49°12' W 122°54'2 4.1
2017-Oct-13 03:30N 49°10' W 122°56'813631.3
2017-Oct-13 03:30N 49°17' W 122°58'0 0.0
2017-Oct-13 03:00N 49°17' W 122°58'82890.2
2017-Oct-13 03:00N 49°09' W 122°59'816.0
2017-Oct-13 02:30N 49°17' W 122°58'93923.7
2017-Oct-13 02:30N 49°09' W 123°01'2 3.2
2017-Oct-13 02:00N 49°08' W 123°03'102990.7
2017-Oct-13 02:00N 49°17' W 122°58'0 0.0
2017-Oct-13 01:30N 49°17' W 122°58'114539.9
2017-Oct-13 01:30N 49°07' W 123°05'1122.7
2017-Oct-13 01:00N 49°17' W 122°58'135015.6
2017-Oct-13 01:00N 49°07' W 123°08'1325.2
2017-Oct-13 00:30N 49°17' W 122°58'135978.0
2017-Oct-13 00:30N 49°07' W 123°11'1326.7
2017-Oct-13 00:00N 49°17' W 122°58'142646.7
2017-Oct-13 00:00N 49°08' W 123°14'2 4.8
2017-Oct-12 23:30N 49°07' W 123°17'165329.3
2017-Oct-12 23:30N 49°17' W 122°58'0 0.0
2017-Oct-12 23:00N 49°17' W 122°58'18465.4
2017-Oct-12 22:58N 49°06' W 123°20'1941.2
2017-Oct-12 22:30N 49°18' W 122°57'209085.6
2017-Oct-12 22:30N 49°07' W 123°23'2243.7
2017-Oct-12 22:00N 49°18' W 122°54'224435.8
2017-Oct-12 22:00N 49°09' W 123°25'3 6.0
2017-Oct-12 21:30N 49°12' W 123°27'2279899.7
2017-Oct-12 21:30N 49°17' W 122°54'2346.5
2017-Oct-12 21:00N 49°14' W 123°30'2383673.6
2017-Oct-12 21:00N 49°17' W 122°54'2549.7
2017-Oct-12 20:30N 49°16' W 123°32'2589440.2
2017-Oct-12 20:30N 49°17' W 122°54'2753.1
2017-Oct-12 20:00N 49°18' W 123°35'278685.7
2017-Oct-12 20:00N 49°17' W 122°54'1 1.1
2017-Oct-12 19:30N 49°18' W 122°55'2816691.6
2017-Oct-12 19:30N 49°20' W 123°38'3 5.4
2017-Oct-12 19:00N 49°22' W 123°40'2798962.8
2017-Oct-12 19:00N 49°17' W 122°58'0 0.1
2017-Oct-12 18:30N 49°17' W 122°58'3015198.1
2017-Oct-12 18:30N 49°24' W 123°43'3 5.2
2017-Oct-12 18:00N 49°27' W 123°45'31112963.3
2017-Oct-12 18:00N 49°17' W 122°58'3264.2
2017-Oct-12 17:30N 49°28' W 123°45'328880.6
2017-Oct-12 17:30N 49°17' W 122°58'3264.6
2017-Oct-12 17:00N 49°28' W 123°45'32115525.1
2017-Oct-12 17:00N 49°17' W 122°58'0 0.0
2017-Oct-12 16:30N 49°17' W 122°58'3212850.1
2017-Oct-12 16:30N 49°28' W 123°45'3162.4
2017-Oct-12 16:00N 49°18' W 123°00'3162.1
2017-Oct-12 15:30N 49°28' W 123°45'3461131.8
2017-Oct-12 15:30N 49°18' W 122°55'3467.9
2017-Oct-12 15:00N 49°28' W 123°45'3664654.7
2017-Oct-12 15:00N 49°18' W 122°52'3672.0
2017-Oct-12 14:30N 49°28' W 123°45'3541698.3
2017-Oct-12 14:30N 49°17' W 122°54'3569.6
2017-Oct-12 14:00N 49°28' W 123°45'3229168.5
2017-Oct-12 14:00N 49°18' W 122°58'3264.9
2017-Oct-12 13:30N 49°28' W 123°45'3228898.5
2017-Oct-12 13:30N 49°17' W 122°58'0 0.0
2017-Oct-12 13:00N 49°17' W 122°58'3264.6
2017-Oct-12 12:30N 49°26' W 123°46'32116298.4
2017-Oct-12 12:30N 49°17' W 122°58'3060.9
2017-Oct-12 12:00N 49°24' W 123°44'308426.6
2017-Oct-12 12:00N 49°17' W 122°58'2957.7
2017-Oct-12 11:30N 49°22' W 123°42'29103180.8
2017-Oct-12 11:30N 49°17' W 122°58'2753.9
2017-Oct-12 11:00N 49°20' W 123°40'2732324.4
2017-Oct-12 11:00N 49°17' W 122°58'0 0.0
2017-Oct-12 10:30N 49°17' W 122°58'255034.9
2017-Oct-12 10:30N 49°17' W 123°37'2550.9
2017-Oct-12 10:00N 49°17' W 122°58'2410812.6
2017-Oct-12 10:00N 49°14' W 123°35'2448.3
2017-Oct-12 09:30N 49°17' W 122°58'239339.4
2017-Oct-12 09:30N 49°11' W 123°33'2346.9
2017-Oct-12 09:00N 49°17' W 122°58'232173.5
2017-Oct-12 09:00N 49°08' W 123°30'2346.9
2017-Oct-12 08:30N 49°17' W 122°58'233052.7
2017-Oct-12 08:30N 49°05' W 123°28'2346.5
2017-Oct-12 08:00N 49°17' W 122°58'231797.1
2017-Oct-12 08:00N 49°02' W 123°25'4 7.4
2017-Oct-12 07:30N 48°58' W 123°22'2544494.2
2017-Oct-12 07:30N 49°17' W 122°58'0 0.0
2017-Oct-12 07:00N 49°17' W 122°58'2631279.1
2017-Oct-12 07:00N 48°55' W 123°19'2652.2
2017-Oct-12 06:30N 49°17' W 122°58'283625.8
2017-Oct-12 06:30N 48°52' W 123°18'2 3.9
2017-Oct-12 06:00N 48°52' W 123°21'3 6.1
2017-Oct-12 05:30N 48°49' W 123°21'4 6.7
2017-Oct-12 04:59N 48°45' W 123°21'8 7.2
2017-Oct-12 03:54N 48°37' W 123°21'3 7.4
2017-Oct-12 03:30N 48°35' W 123°19'4 7.3
2017-Oct-12 03:00N 48°31' W 123°18'4 7.1
2017-Oct-12 02:30N 48°28' W 123°16'4 8.3
2017-Oct-12 02:00N 48°24' W 123°18'4 8.2
2017-Oct-12 01:30N 48°25' W 123°24'1 2.9
2017-Oct-12 01:00N 48°26' W 123°23'0 0.6
2017-Oct-12 00:30N 48°26' W 123°22'0 0.0
2017-Oct-12 00:00N 48°26' W 123°22'0 0.0
2017-Oct-11 23:30N 48°26' W 123°22'0 0.0
2017-Oct-11 23:00N 48°26' W 123°22'0 0.0
2017-Oct-11 22:30N 48°26' W 123°22'0 0.0
2017-Oct-11 22:00N 48°26' W 123°22'0 0.0
2017-Oct-11 21:30N 48°26' W 123°22'0 0.0
2017-Oct-11 21:00N 48°26' W 123°22'0 0.0
2017-Oct-11 20:30N 48°26' W 123°22'0 0.0
2017-Oct-11 20:00N 48°26' W 123°22'0 0.0
2017-Oct-11 19:30N 48°26' W 123°22'0 0.0
2017-Oct-11 19:00N 48°26' W 123°22'0 0.0
2017-Oct-11 18:30N 48°26' W 123°22'0 0.0
2017-Oct-11 18:00N 48°26' W 123°22'0 0.0
2017-Oct-11 17:30N 48°26' W 123°22'0 0.0
2017-Oct-11 17:00N 48°26' W 123°22'54126.8
2017-Oct-11 16:35N 49°17' W 122°58'39 2.3
2017-Oct-11 00:00N 49°12' W 123°57'3013540.3
2017-Oct-11 00:00N 48°50' W 123°25'3 5.7
2017-Oct-10 23:30N 48°53' W 123°27'271646.3
2017-Oct-10 23:29N 49°12' W 123°57'0 0.0
2017-Oct-10 23:00N 49°12' W 123°57'253154.4
2017-Oct-10 23:00N 48°55' W 123°30'3 6.0
2017-Oct-10 22:30N 48°57' W 123°33'3 6.4
2017-Oct-10 22:00N 48°60' W 123°36'1850.6
2017-Oct-10 21:38N 49°12' W 123°57'18129.1
2017-Oct-10 21:30N 49°02' W 123°35'1840.7
2017-Oct-10 21:04N 49°12' W 123°57'17252.5
2017-Oct-10 21:00N 49°03' W 123°35'17249.4
2017-Oct-10 20:56N 49°12' W 123°57'1535.4
2017-Oct-10 20:30N 49°05' W 123°36'15251.1
2017-Oct-10 20:27N 49°12' W 123°57'1432.6
2017-Oct-10 20:00N 49°07' W 123°36'14113.3
2017-Oct-10 19:53N 49°12' W 123°57'1334.0
2017-Oct-10 19:30N 49°10' W 123°37'1323766.2
2017-Oct-10 19:30N 49°12' W 123°57'1325.7
2017-Oct-10 19:00N 49°13' W 123°38'13102.1
2017-Oct-10 18:53N 49°12' W 123°57'1333.5
2017-Oct-10 18:30N 49°16' W 123°39'1335.1
2017-Oct-10 18:09N 49°12' W 123°57'1397.3
2017-Oct-10 18:00N 49°19' W 123°40'13208.8
2017-Oct-10 17:57N 49°12' W 123°57'1432.0
2017-Oct-10 17:30N 49°22' W 123°42'14382.1
2017-Oct-10 17:28N 49°12' W 123°57'1633.9
2017-Oct-10 17:00N 49°24' W 123°43'16347.1
2017-Oct-10 16:58N 49°12' W 123°57'1738.0
2017-Oct-10 16:30N 49°27' W 123°45'171981.0
2017-Oct-10 16:30N 49°12' W 123°57'1836.7
2017-Oct-10 16:00N 49°28' W 123°45'18574.7
2017-Oct-10 15:59N 49°12' W 123°57'1837.5
2017-Oct-10 15:30N 49°28' W 123°45'183013.6
2017-Oct-10 15:30N 49°12' W 123°57'3 5.4
2017-Oct-10 15:00N 49°14' W 123°53'165605.1
2017-Oct-10 15:00N 49°28' W 123°45'0 0.0
2017-Oct-10 14:00N 49°28' W 123°45'132301.7
2017-Oct-10 14:00N 49°15' W 123°46'1326.4
2017-Oct-10 13:30N 49°28' W 123°46'1345603.6
2017-Oct-10 13:30N 49°15' W 123°43'1121.7
2017-Oct-10 13:00N 49°26' W 123°45'11933.8
2017-Oct-10 13:00N 49°16' W 123°39'918.2
2017-Oct-10 12:30N 49°24' W 123°43'1035875.8
2017-Oct-10 12:30N 49°17' W 123°34'815.2
2017-Oct-10 12:00N 49°23' W 123°41'1035231.2
2017-Oct-10 12:00N 49°18' W 123°28'714.6
2017-Oct-10 11:30N 49°21' W 123°38'1119237.0
2017-Oct-10 11:30N 49°18' W 123°22'917.2
2017-Oct-10 11:00N 49°19' W 123°35'1345350.2
2017-Oct-10 11:00N 49°19' W 123°16'1122.4
2017-Oct-10 10:30N 49°17' W 123°33'1526944.2
2017-Oct-10 10:30N 49°19' W 123°10'3 6.0
2017-Oct-10 10:00N 49°18' W 123°06'172126.2
2017-Oct-10 10:00N 49°15' W 123°30'2041.0
2017-Oct-10 09:31N 49°18' W 123°00'192376.9
2017-Oct-10 09:30N 49°12' W 123°28'2040.4
2017-Oct-10 09:00N 49°17' W 122°58'199744.2
2017-Oct-10 09:00N 49°10' W 123°25'1938.3
2017-Oct-10 08:30N 49°17' W 122°58'183604.1
2017-Oct-10 08:30N 49°08' W 123°22'2 4.3
2017-Oct-10 08:00N 49°07' W 123°20'1864552.9
2017-Oct-10 08:00N 49°17' W 122°58'0 0.0
2017-Oct-10 07:30N 49°17' W 122°58'153135.0
2017-Oct-10 07:30N 49°07' W 123°15'1529.9
2017-Oct-10 07:00N 49°17' W 122°58'13967.2
2017-Oct-10 07:00N 49°07' W 123°09'4 7.4
2017-Oct-10 06:30N 49°08' W 123°04'1037383.8
2017-Oct-10 06:30N 49°17' W 122°58'1123.0
2017-Oct-10 06:00N 49°07' W 123°06'1122.9
2017-Oct-10 05:30N 49°17' W 122°58'13823.2
2017-Oct-10 05:29N 49°07' W 123°12'1327.4
2017-Oct-10 05:00N 49°17' W 122°58'136740.7
2017-Oct-10 05:00N 49°07' W 123°11'1326.3
2017-Oct-10 04:30N 49°17' W 122°58'13674.3
2017-Oct-10 04:29N 49°07' W 123°11'1327.3
2017-Oct-10 04:00N 49°17' W 122°58'135902.2
2017-Oct-10 04:00N 49°07' W 123°11'1326.3
2017-Oct-10 03:30N 49°17' W 122°58'136743.0
2017-Oct-10 03:30N 49°07' W 123°11'1326.4
2017-Oct-10 03:00N 49°17' W 122°58'131573.4
2017-Oct-10 03:00N 49°07' W 123°11'1326.6
2017-Oct-10 02:30N 49°17' W 122°58'135242.8
2017-Oct-10 02:30N 49°07' W 123°11'1326.4
2017-Oct-10 02:00N 49°17' W 122°58'135246.4
2017-Oct-10 02:00N 49°07' W 123°11'1326.4
2017-Oct-10 01:30N 49°17' W 122°58'135244.6
2017-Oct-10 01:30N 49°07' W 123°11'1326.4
2017-Oct-10 01:00N 49°17' W 122°58'0 0.0
2017-Oct-10 00:30N 49°17' W 122°58'136743.0
2017-Oct-10 00:30N 49°07' W 123°11'0 0.0
2017-Oct-10 00:00N 49°07' W 123°11'0 0.0
2017-Oct-09 23:30N 49°07' W 123°11'1315733.8
2017-Oct-09 23:30N 49°17' W 122°58'1326.3
2017-Oct-09 23:00N 49°07' W 123°11'1347184.8
2017-Oct-09 23:00N 49°17' W 122°58'0 0.0
2017-Oct-09 22:30N 49°17' W 122°58'13239.6
2017-Oct-09 22:27N 49°07' W 123°11'1329.2
2017-Oct-09 22:00N 49°17' W 122°59'1 2.5
2017-Oct-09 21:30N 49°18' W 122°57'2 3.7
2017-Oct-09 21:00N 49°17' W 122°54'3 5.9
2017-Oct-09 20:30N 49°18' W 122°58'0 0.3
2017-Oct-09 20:00N 49°17' W 122°58'0 0.0
2017-Oct-09 19:30N 49°17' W 122°58'0 0.0
2017-Oct-09 19:00N 49°17' W 122°58'13152.3
2017-Oct-09 18:55N 49°07' W 123°11'1331.7
2017-Oct-09 18:30N 49°17' W 122°58'13314.8
2017-Oct-09 18:28N 49°07' W 123°11'1 1.8
2017-Oct-09 18:00N 49°08' W 123°13'1448735.8
2017-Oct-09 18:00N 49°17' W 122°58'1836.4
2017-Oct-09 17:30N 49°05' W 123°19'185949.2
2017-Oct-09 17:30N 49°17' W 122°58'0 0.0
2017-Oct-09 17:00N 49°17' W 122°58'223927.3
2017-Oct-09 17:00N 49°00' W 123°19'5 9.8
2017-Oct-09 16:30N 48°55' W 123°18'2692316.5
2017-Oct-09 16:30N 49°17' W 122°58'2 4.3
2017-Oct-09 16:00N 49°18' W 122°55'312838.2
2017-Oct-09 16:00N 48°52' W 123°20'3163.2
2017-Oct-09 15:30N 49°18' W 122°55'3511386.8
2017-Oct-09 15:30N 48°47' W 123°20'3467.9
2017-Oct-09 15:00N 49°17' W 122°58'0 0.1
2017-Oct-09 14:30N 49°17' W 122°58'435219.6
2017-Oct-09 14:30N 48°36' W 123°20'611.4
2017-Oct-09 14:00N 48°31' W 123°18'5 9.7
2017-Oct-09 13:30N 48°26' W 123°16'5318976.8
2017-Oct-09 13:30N 49°17' W 122°58'56112.0
2017-Oct-09 13:00N 48°24' W 123°22'5639970.8
2017-Oct-09 13:00N 49°17' W 122°58'54107.7
2017-Oct-09 12:30N 48°26' W 123°22'5438678.8
2017-Oct-09 12:30N 49°17' W 122°58'55109.4
2017-Oct-09 12:00N 48°25' W 123°23'5539264.1
2017-Oct-09 12:00N 49°17' W 122°58'0 0.0
2017-Oct-09 11:30N 49°17' W 122°58'5633582.2
2017-Oct-09 11:30N 48°24' W 123°24'1 1.5
2017-Oct-09 11:00N 48°24' W 123°23'5650494.1
2017-Oct-09 11:00N 49°17' W 122°58'56111.9
2017-Oct-09 10:30N 48°24' W 123°21'5650282.2
2017-Oct-09 10:30N 49°17' W 122°58'56112.0
2017-Oct-09 10:00N 48°23' W 123°20'5640200.6
2017-Oct-09 10:00N 49°17' W 122°58'56111.3
2017-Oct-09 09:30N 48°23' W 123°18'5649971.3
2017-Oct-09 09:30N 49°17' W 122°58'  

Dump ship's entire track history